createdAt,value
2019-04-01T00:00:47.440Z,35.23
2019-04-01T00:03:13.508Z,36.03
2019-04-01T00:05:39.583Z,33.88
2019-04-01T00:08:05.656Z,35.98
2019-04-01T00:10:31.744Z,36.13
2019-04-01T00:12:57.832Z,35.38
2019-04-01T00:15:23.932Z,38.17
2019-04-01T00:17:50.307Z,36.20
2019-04-01T00:20:16.379Z,35.78
2019-04-01T00:22:42.480Z,35.65
2019-04-01T00:25:08.690Z,38.02
2019-04-01T00:27:34.836Z,36.03
2019-04-01T00:30:01.037Z,34.73
2019-04-01T00:32:27.107Z,34.65
2019-04-01T00:34:53.197Z,35.50
2019-04-01T00:37:19.289Z,36.28
2019-04-01T00:39:45.377Z,37.48
2019-04-01T00:42:19.317Z,37.13
2019-04-01T00:44:45.420Z,35.63
2019-04-01T00:47:11.497Z,35.45
2019-04-01T00:49:37.582Z,36.55
2019-04-01T00:52:03.684Z,40.15
2019-04-01T00:54:29.800Z,36.23
2019-04-01T00:56:55.984Z,35.35
2019-04-01T00:59:22.048Z,37.28
2019-04-01T01:01:48.161Z,36.85
2019-04-01T01:04:14.271Z,38.60
2019-04-01T01:06:40.344Z,33.88
2019-04-01T01:09:06.447Z,38.20
2019-04-01T01:11:32.819Z,38.70
2019-04-01T01:13:58.930Z,36.10
2019-04-01T01:16:25.029Z,38.90
2019-04-01T01:18:51.090Z,35.55
2019-04-01T01:21:17.210Z,35.60
2019-04-01T01:23:43.291Z,38.15
2019-04-01T01:26:09.607Z,39.60
2019-04-01T01:28:36.516Z,36.58
2019-04-01T01:31:02.603Z,39.38
2019-04-01T01:33:28.703Z,34.60
2019-04-01T01:35:54.765Z,35.58
2019-04-01T01:38:20.883Z,36.15
2019-04-01T01:40:46.979Z,35.60
2019-04-01T01:43:13.059Z,35.83
2019-04-01T01:45:39.139Z,34.18
2019-04-01T01:48:05.225Z,36.00
2019-04-01T01:50:31.307Z,34.65
2019-04-01T01:52:57.404Z,34.20
2019-04-01T01:55:23.488Z,32.30
2019-04-01T01:57:49.568Z,31.52
2019-04-01T02:00:15.835Z,31.60
2019-04-01T02:02:42.008Z,34.18
2019-04-01T02:05:08.489Z,30.62
2019-04-01T02:07:34.551Z,31.77
2019-04-01T02:10:01.411Z,31.52
2019-04-01T02:12:27.587Z,30.32
2019-04-01T02:14:53.687Z,27.95
2019-04-01T02:17:19.765Z,29.25
2019-04-01T02:19:45.847Z,28.15
2019-04-01T02:22:11.912Z,27.22
2019-04-01T02:24:38.113Z,27.93
2019-04-01T02:27:04.415Z,26.30
2019-04-01T02:29:30.529Z,27.60
2019-04-01T02:31:56.647Z,28.60
2019-04-01T02:34:22.848Z,28.77
2019-04-01T02:36:48.922Z,29.00
2019-04-01T02:39:15.001Z,26.90
2019-04-01T02:41:41.089Z,27.13
2019-04-01T02:44:07.186Z,26.40
2019-04-01T02:46:33.345Z,26.70
2019-04-01T02:48:59.721Z,26.77
2019-04-01T02:51:25.793Z,26.52
2019-04-01T02:53:51.883Z,27.77
2019-04-01T02:56:17.957Z,28.40
2019-04-01T02:58:44.099Z,27.37
2019-04-01T03:01:10.179Z,28.73
2019-04-01T03:03:36.234Z,29.10
2019-04-01T03:06:03.200Z,27.60
2019-04-01T03:08:29.675Z,25.25
2019-04-01T03:10:55.859Z,27.22
2019-04-01T03:13:21.929Z,25.70
2019-04-01T03:15:48.036Z,26.20
2019-04-01T03:18:14.118Z,26.75
2019-04-01T03:20:40.187Z,25.00
2019-04-01T03:23:06.277Z,27.30
2019-04-01T03:25:32.525Z,24.90
2019-04-01T03:27:58.597Z,25.17
2019-04-01T03:30:24.781Z,26.42
2019-04-01T03:32:50.849Z,26.15
2019-04-01T03:35:16.943Z,26.73
2019-04-01T03:37:43.117Z,24.72
2019-04-01T03:40:09.396Z,26.55
2019-04-01T03:42:35.609Z,24.50
2019-04-01T03:45:01.684Z,24.80
2019-04-01T03:47:27.863Z,23.52
2019-04-01T03:49:53.921Z,26.48
2019-04-01T03:52:19.999Z,22.40
2019-04-01T03:54:46.113Z,25.00
2019-04-01T03:57:12.179Z,27.67
2019-04-01T03:59:38.257Z,26.85
2019-04-01T04:02:04.328Z,27.25
2019-04-01T04:04:30.547Z,24.47
2019-04-01T04:06:56.705Z,25.10
2019-04-01T04:09:22.853Z,26.62
2019-04-01T04:11:49.052Z,25.08
2019-04-01T04:14:15.157Z,23.92
2019-04-01T04:16:41.232Z,26.27
2019-04-01T04:19:07.300Z,24.98
2019-04-01T04:21:33.391Z,28.10
2019-04-01T04:23:59.456Z,28.05
2019-04-01T04:26:25.552Z,25.27
2019-04-01T04:28:51.820Z,25.40
2019-04-01T04:31:17.913Z,27.15
2019-04-01T04:33:44.057Z,24.52
2019-04-01T04:36:10.139Z,27.20
2019-04-01T04:38:36.215Z,27.27
2019-04-01T04:41:02.305Z,24.87
2019-04-01T04:43:28.380Z,24.85
2019-04-01T04:45:54.704Z,25.72
2019-04-01T04:48:20.894Z,25.25
2019-04-01T04:50:46.955Z,25.65
2019-04-01T04:53:13.061Z,24.52
2019-04-01T04:55:39.216Z,26.85
2019-04-01T04:58:05.625Z,25.45
2019-04-01T05:00:32.232Z,25.92
2019-04-01T05:02:58.320Z,25.70
2019-04-01T05:05:24.396Z,25.40
2019-04-01T05:07:50.534Z,25.97
2019-04-01T05:10:16.680Z,25.30
2019-04-01T05:12:43.060Z,25.82
2019-04-01T05:15:09.246Z,24.55
2019-04-01T05:17:35.344Z,27.07
2019-04-01T05:20:01.728Z,25.20
2019-04-01T05:22:28.110Z,25.30
2019-04-01T05:24:55.194Z,26.15
2019-04-01T05:27:24.638Z,26.12
2019-04-01T05:29:52.555Z,26.27
2019-04-01T05:32:19.135Z,24.65
2019-04-01T05:34:46.711Z,27.32
2019-04-01T05:37:12.785Z,25.65
2019-04-01T05:39:38.874Z,28.42
2019-04-01T05:42:05.027Z,29.02
2019-04-01T05:44:31.195Z,25.30
2019-04-01T05:46:57.355Z,28.77
2019-04-01T05:49:23.439Z,28.90
2019-04-01T05:51:49.653Z,26.37
2019-04-01T05:54:16.019Z,26.27
2019-04-01T05:56:42.127Z,29.50
2019-04-01T05:59:08.397Z,26.40
2019-04-01T06:01:42.416Z,27.85
2019-04-01T06:04:08.504Z,27.25
2019-04-01T06:06:34.587Z,25.08
2019-04-01T06:09:00.770Z,27.10
2019-04-01T06:11:26.844Z,26.07
2019-04-01T06:13:52.924Z,27.05
2019-04-01T06:16:19.350Z,25.75
2019-04-01T06:18:46.119Z,26.87
2019-04-01T06:21:12.496Z,29.23
2019-04-01T06:23:38.669Z,25.68
2019-04-01T06:26:04.938Z,24.02
2019-04-01T06:28:31.135Z,27.52
2019-04-01T06:30:57.294Z,24.90
2019-04-01T06:33:23.575Z,25.88
2019-04-01T06:35:49.681Z,25.52
2019-04-01T06:38:15.749Z,26.02
2019-04-01T06:40:42.036Z,26.30
2019-04-01T06:43:08.231Z,27.17
2019-04-01T06:45:34.320Z,25.50
2019-04-01T06:48:00.419Z,25.62
2019-04-01T06:50:26.529Z,26.40
2019-04-01T06:52:53.480Z,26.45
2019-04-01T06:55:20.066Z,24.87
2019-04-01T06:57:46.269Z,24.15
2019-04-01T07:00:12.743Z,24.92
2019-04-01T07:02:38.926Z,25.02
2019-04-01T07:05:05.131Z,26.93
2019-04-01T07:07:31.519Z,26.68
2019-04-01T07:09:57.624Z,25.65
2019-04-01T07:12:23.812Z,26.68
2019-04-01T07:14:49.898Z,24.47
2019-04-01T07:17:16.161Z,26.80
2019-04-01T07:19:42.280Z,26.23
2019-04-01T07:22:09.332Z,26.00
2019-04-01T07:24:35.541Z,26.15
2019-04-01T07:27:01.851Z,23.70
2019-04-01T07:29:28.019Z,25.83
2019-04-01T07:31:54.609Z,26.53
2019-04-01T07:34:20.772Z,26.40
2019-04-01T07:36:46.851Z,24.70
2019-04-01T07:39:13.057Z,25.63
2019-04-01T07:41:39.114Z,26.00
2019-04-01T07:44:05.201Z,26.23
2019-04-01T07:46:31.275Z,24.90
2019-04-01T07:48:57.326Z,23.53
2019-04-01T07:51:23.504Z,23.90
2019-04-01T07:53:49.566Z,25.70
2019-04-01T07:56:15.731Z,24.93
2019-04-01T07:58:42.412Z,26.73
2019-04-01T08:01:08.491Z,26.00
2019-04-01T08:03:35.376Z,25.43
2019-04-01T08:06:01.752Z,24.93
2019-04-01T08:08:27.927Z,24.57
2019-04-01T08:10:54.105Z,26.83
2019-04-01T08:13:20.192Z,23.93
2019-04-01T08:15:46.364Z,25.10
2019-04-01T08:18:12.533Z,25.40
2019-04-01T08:20:39.000Z,25.80
2019-04-01T08:23:05.285Z,24.70
2019-04-01T08:25:31.576Z,25.30
2019-04-01T08:27:57.652Z,26.00
2019-04-01T08:30:23.928Z,25.20
2019-04-01T08:32:50.137Z,24.80
2019-04-01T08:35:16.381Z,24.77
2019-04-01T08:37:42.479Z,25.53
2019-04-01T08:40:10.145Z,25.20
2019-04-01T08:42:36.254Z,26.70
2019-04-01T08:45:05.442Z,24.63
2019-04-01T08:47:31.611Z,25.50
2019-04-01T08:49:57.705Z,24.73
2019-04-01T08:52:24.216Z,26.60
2019-04-01T08:54:52.213Z,26.20
2019-04-01T08:57:18.685Z,23.97
2019-04-01T08:59:45.195Z,25.10
2019-04-01T09:02:17.766Z,24.93
2019-04-01T09:04:39.388Z,25.50
2019-04-01T09:07:05.488Z,25.17
2019-04-01T09:09:32.641Z,24.70
2019-04-01T09:11:59.715Z,23.90
2019-04-01T09:14:26.183Z,24.73
2019-04-01T09:16:52.581Z,26.40
2019-04-01T09:19:18.661Z,27.20
2019-04-01T09:21:44.846Z,26.50
2019-04-01T09:24:10.938Z,25.37
2019-04-01T09:26:36.979Z,25.07
2019-04-01T09:29:03.282Z,26.00
2019-04-01T09:31:29.374Z,25.37
2019-04-01T09:33:55.452Z,25.73
2019-04-01T09:36:21.533Z,25.37
2019-04-01T09:38:47.732Z,26.23
2019-04-01T09:41:13.855Z,27.07
2019-04-01T09:43:40.061Z,24.70
2019-04-01T09:46:06.224Z,25.03
2019-04-01T09:48:32.341Z,27.10
2019-04-01T09:50:58.427Z,25.50
2019-04-01T09:53:24.551Z,25.33
2019-04-01T09:55:50.661Z,26.17
2019-04-01T09:58:16.740Z,23.83
2019-04-01T10:00:42.866Z,26.97
2019-04-01T10:03:09.035Z,23.13
2019-04-01T10:05:35.151Z,23.37
2019-04-01T10:08:01.223Z,25.43
2019-04-01T10:10:27.400Z,25.87
2019-04-01T10:12:53.483Z,25.27
2019-04-01T10:15:19.549Z,27.77
2019-04-01T10:17:45.665Z,24.23
2019-04-01T10:20:12.330Z,25.40
2019-04-01T10:22:38.422Z,24.97
2019-04-01T10:25:05.095Z,25.63
2019-04-01T10:27:31.486Z,23.90
2019-04-01T10:29:57.547Z,26.43
2019-04-01T10:32:23.628Z,26.20
2019-04-01T10:34:49.709Z,24.97
2019-04-01T10:37:15.764Z,24.10
2019-04-01T10:39:41.839Z,24.07
2019-04-01T10:42:07.919Z,24.63
2019-04-01T10:44:33.997Z,24.17
2019-04-01T10:47:00.092Z,23.97
2019-04-01T10:49:26.265Z,23.10
2019-04-01T10:51:52.551Z,23.70
2019-04-01T10:54:18.724Z,23.63
2019-04-01T10:56:44.984Z,21.20
2019-04-01T10:59:11.194Z,23.57
2019-04-01T11:01:37.352Z,23.93
2019-04-01T11:04:03.624Z,24.40
2019-04-01T11:06:29.957Z,22.60
2019-04-01T11:08:56.150Z,23.47
2019-04-01T11:11:22.311Z,22.50
2019-04-01T11:13:51.630Z,21.23
2019-04-01T11:16:16.926Z,22.33
2019-04-01T11:18:43.262Z,23.03
2019-04-01T11:21:09.520Z,22.83
2019-04-01T11:23:35.889Z,21.07
2019-04-01T11:26:02.103Z,22.03
2019-04-01T11:28:28.163Z,21.80
2019-04-01T11:30:54.270Z,20.80
2019-04-01T11:33:20.724Z,21.60
2019-04-01T11:35:46.850Z,21.40
2019-04-01T11:38:13.072Z,21.63
2019-04-01T11:40:39.236Z,22.20
2019-04-01T11:43:05.447Z,20.90
2019-04-01T11:45:31.710Z,20.53
2019-04-01T11:47:58.021Z,21.33
2019-04-01T11:50:25.090Z,21.83
2019-04-01T11:52:51.797Z,19.17
2019-04-01T11:55:17.927Z,20.60
2019-04-01T11:57:44.014Z,20.67
2019-04-01T12:00:15.504Z,20.17
2019-04-01T12:02:41.664Z,18.70
2019-04-01T12:05:08.450Z,20.40
2019-04-01T12:07:34.518Z,19.00
2019-04-01T12:10:00.657Z,19.57
2019-04-01T12:12:26.884Z,19.80
2019-04-01T12:14:52.975Z,20.43
2019-04-01T12:17:19.065Z,20.40
2019-04-01T12:19:45.169Z,19.77
2019-04-01T12:22:11.311Z,19.13
2019-04-01T12:24:37.836Z,18.03
2019-04-01T12:27:03.916Z,18.90
2019-04-01T12:29:30.004Z,18.03
2019-04-01T12:31:59.508Z,17.17
2019-04-01T12:34:24.071Z,18.37
2019-04-01T12:36:50.128Z,16.30
2019-04-01T12:39:16.204Z,16.23
2019-04-01T12:41:42.276Z,18.30
2019-04-01T12:44:08.561Z,17.07
2019-04-01T12:46:34.632Z,15.93
2019-04-01T12:49:00.812Z,17.80
2019-04-01T12:51:27.084Z,16.63
2019-04-01T12:53:53.399Z,16.87
2019-04-01T12:56:25.748Z,18.50
2019-04-01T12:58:51.848Z,16.00
2019-04-01T13:01:17.960Z,16.20
2019-04-01T13:03:44.081Z,15.90
2019-04-01T13:06:10.179Z,16.30
2019-04-01T13:08:36.381Z,16.90
2019-04-01T13:11:02.654Z,16.47
2019-04-01T13:13:28.733Z,16.23
2019-04-01T13:15:54.823Z,17.03
2019-04-01T13:18:20.908Z,17.07
2019-04-01T13:20:47.008Z,15.93
2019-04-01T13:23:13.113Z,17.07
2019-04-01T13:25:39.218Z,15.40
2019-04-01T13:28:05.487Z,17.37
2019-04-01T13:30:31.556Z,16.40
2019-04-01T13:32:57.624Z,15.70
2019-04-01T13:35:23.722Z,15.53
2019-04-01T13:37:49.914Z,14.10
2019-04-01T13:40:19.299Z,14.87
2019-04-01T13:42:43.957Z,14.50
2019-04-01T13:45:10.189Z,13.30
2019-04-01T13:47:36.307Z,14.83
2019-04-01T13:50:04.117Z,13.43
2019-04-01T13:52:30.744Z,16.00
2019-04-01T13:54:57.266Z,15.33
2019-04-01T13:57:23.948Z,14.47
2019-04-01T13:59:51.766Z,13.93
2019-04-01T14:02:18.676Z,12.83
2019-04-01T14:04:45.274Z,13.37
2019-04-01T14:07:11.818Z,12.80
2019-04-01T14:09:38.416Z,13.80
2019-04-01T14:12:04.990Z,12.90
2019-04-01T14:14:31.557Z,12.90
2019-04-01T14:16:58.040Z,14.87
2019-04-01T14:19:24.641Z,12.70
2019-04-01T14:21:52.129Z,11.77
2019-04-01T14:24:19.013Z,12.40
2019-04-01T14:26:45.705Z,13.07
2019-04-01T14:29:12.255Z,11.97
2019-04-01T14:31:38.762Z,11.57
2019-04-01T14:34:06.254Z,14.10
2019-04-01T14:36:33.376Z,12.60
2019-04-01T14:38:59.883Z,12.27
2019-04-01T14:41:26.706Z,12.23
2019-04-01T14:43:55.176Z,11.30
2019-04-01T14:46:24.514Z,11.97
2019-04-01T14:48:51.148Z,12.47
2019-04-01T14:51:17.719Z,11.23
2019-04-01T14:53:44.239Z,11.33
2019-04-01T14:56:10.726Z,12.30
2019-04-01T14:58:38.943Z,11.70
2019-04-01T15:01:06.094Z,12.03
2019-04-01T15:03:32.881Z,11.70
2019-04-01T15:05:59.396Z,10.73
2019-04-01T15:08:25.908Z,10.93
2019-04-01T15:10:52.403Z,12.10
2019-04-01T15:13:19.009Z,11.80
2019-04-01T15:15:45.602Z,11.50
2019-04-01T15:18:12.063Z,11.10
2019-04-01T15:20:38.637Z,11.87
2019-04-01T15:23:05.163Z,11.70
2019-04-01T15:25:31.781Z,11.10
2019-04-01T15:27:58.659Z,10.00
2019-04-01T15:30:25.194Z,12.00
2019-04-01T15:32:52.183Z,10.80
2019-04-01T15:35:19.008Z,11.70
2019-04-01T15:37:45.528Z,10.23
2019-04-01T15:40:12.130Z,11.83
2019-04-01T15:42:38.695Z,10.10
2019-04-01T15:45:06.399Z,10.87
2019-04-01T15:47:33.423Z,10.83
2019-04-01T15:49:59.917Z,10.40
2019-04-01T15:52:26.471Z,9.77
2019-04-01T15:54:52.958Z,9.50
2019-04-01T15:57:19.449Z,10.93
2019-04-01T15:59:46.058Z,10.40
2019-04-01T16:02:12.745Z,10.17
2019-04-01T16:04:39.253Z,10.53
2019-04-01T16:07:05.829Z,9.97
2019-04-01T16:09:32.302Z,10.60
2019-04-01T16:11:58.827Z,10.80
2019-04-01T16:14:25.292Z,10.83
2019-04-01T16:16:51.817Z,11.40
2019-04-01T16:19:18.337Z,9.70
2019-04-01T16:21:44.849Z,10.57
2019-04-01T16:24:11.405Z,10.40
2019-04-01T16:26:37.932Z,10.83
2019-04-01T16:29:04.425Z,9.90
2019-04-01T16:31:31.052Z,11.20
2019-04-01T16:33:57.545Z,11.10
2019-04-01T16:36:24.050Z,11.20
2019-04-01T16:38:50.531Z,10.87
2019-04-01T16:41:17.061Z,10.90
2019-04-01T16:43:43.628Z,10.30
2019-04-01T16:46:10.131Z,8.63
2019-04-01T16:48:38.234Z,9.80
2019-04-01T16:51:04.904Z,10.80
2019-04-01T16:53:32.272Z,10.00
2019-04-01T16:55:59.079Z,10.17
2019-04-01T16:58:25.572Z,9.67
2019-04-01T17:00:52.160Z,9.30
2019-04-01T17:03:19.691Z,10.73
2019-04-01T17:05:47.020Z,10.57
2019-04-01T17:08:13.830Z,11.07
2019-04-01T17:10:40.325Z,11.10
2019-04-01T17:13:06.975Z,10.43
2019-04-01T17:15:33.578Z,11.10
2019-04-01T17:18:00.194Z,10.20
2019-04-01T17:20:26.793Z,9.67
2019-04-01T17:22:53.419Z,9.03
2019-04-01T17:25:19.912Z,9.90
2019-04-01T17:27:46.448Z,10.17
2019-04-01T17:30:13.155Z,10.00
2019-04-01T17:32:39.250Z,9.50
2019-04-01T17:35:05.553Z,10.10
2019-04-01T17:37:31.867Z,9.97
2019-04-01T17:39:58.174Z,9.30
2019-04-01T17:42:24.256Z,10.47
2019-04-01T17:44:52.934Z,10.07
2019-04-01T17:47:19.064Z,11.23
2019-04-01T17:49:45.153Z,10.27
2019-04-01T17:52:11.334Z,10.17
2019-04-01T17:54:40.043Z,11.00
2019-04-01T17:57:05.570Z,10.37
2019-04-01T17:59:31.692Z,10.03
2019-04-01T18:01:57.864Z,10.77
2019-04-01T18:04:24.077Z,10.53
2019-04-01T18:06:50.232Z,10.77
2019-04-01T18:09:16.400Z,10.20
2019-04-01T18:11:42.489Z,10.60
2019-04-01T18:14:09.327Z,10.60
2019-04-01T18:16:35.413Z,9.93
2019-04-01T18:19:01.506Z,10.13
2019-04-01T18:21:27.565Z,10.17
2019-04-01T18:23:54.128Z,9.63
2019-04-01T18:26:21.060Z,10.23
2019-04-01T18:28:48.032Z,10.90
2019-04-01T18:31:14.725Z,9.93
2019-04-01T18:33:55.077Z,10.23
2019-04-01T18:36:08.893Z,10.57
2019-04-01T18:38:35.081Z,12.40
2019-04-01T18:41:01.183Z,11.00
2019-04-01T18:43:28.253Z,11.93
2019-04-01T18:45:54.677Z,10.93
2019-04-01T18:48:20.870Z,11.50
2019-04-01T18:50:47.055Z,12.03
2019-04-01T18:53:13.245Z,11.10
2019-04-01T18:55:39.296Z,10.77
2019-04-01T18:58:05.374Z,10.30
2019-04-01T19:00:31.544Z,10.80
2019-04-01T19:02:57.659Z,11.30
2019-04-01T19:05:23.872Z,11.33
2019-04-01T19:07:50.038Z,10.50
2019-04-01T19:10:16.395Z,10.90
2019-04-01T19:12:42.495Z,11.40
2019-04-01T19:15:09.878Z,10.03
2019-04-01T19:17:36.552Z,12.00
2019-04-01T19:20:05.428Z,11.60
2019-04-01T19:22:32.373Z,11.70
2019-04-01T19:24:59.458Z,11.23
2019-04-01T19:27:25.938Z,11.50
2019-04-01T19:29:52.053Z,12.37
2019-04-01T19:32:18.243Z,11.70
2019-04-01T19:34:44.417Z,10.53
2019-04-01T19:37:10.587Z,12.17
2019-04-01T19:39:36.695Z,11.50
2019-04-01T19:42:02.835Z,11.83
2019-04-01T19:44:28.967Z,11.27
2019-04-01T19:46:55.312Z,9.87
2019-04-01T19:49:21.508Z,11.50
2019-04-01T19:51:47.646Z,10.40
2019-04-01T19:54:13.788Z,10.57
2019-04-01T19:56:40.176Z,11.10
2019-04-01T19:59:06.493Z,10.37
2019-04-01T20:01:32.679Z,11.37
2019-04-01T20:03:58.764Z,10.70
2019-04-01T20:06:24.843Z,10.40
2019-04-01T20:08:51.824Z,11.80
2019-04-01T20:11:17.881Z,11.50
2019-04-01T20:13:43.948Z,10.00
2019-04-01T20:16:10.403Z,10.60
2019-04-01T20:18:37.088Z,10.67
2019-04-01T20:21:03.366Z,10.17
2019-04-01T20:23:29.454Z,10.67
2019-04-01T20:25:55.562Z,10.87
2019-04-01T20:28:21.732Z,10.40
2019-04-01T20:30:47.832Z,9.70
2019-04-01T20:33:17.898Z,10.43
2019-04-01T20:35:41.884Z,10.40
2019-04-01T20:38:07.984Z,11.60
2019-04-01T20:40:34.049Z,10.83
2019-04-01T20:43:00.125Z,11.57
2019-04-01T20:45:26.208Z,11.20
2019-04-01T20:47:52.271Z,10.80
2019-04-01T20:50:40.153Z,11.15
2019-04-01T20:53:06.299Z,9.13
2019-04-01T20:55:32.391Z,11.15
2019-04-01T20:57:58.501Z,9.85
2019-04-01T21:00:24.660Z,10.25
2019-04-01T21:02:50.856Z,9.53
2019-04-01T21:05:17.046Z,9.60
2019-04-01T21:07:43.221Z,9.80
2019-04-01T21:10:11.138Z,10.60
2019-04-01T21:12:37.744Z,9.30
2019-04-01T21:15:05.496Z,10.00
2019-04-01T21:17:31.777Z,9.60
2019-04-01T21:19:57.875Z,8.83
2019-04-01T21:22:23.940Z,9.20
2019-04-01T21:24:50.023Z,8.83
2019-04-01T21:27:16.110Z,10.20
2019-04-01T21:29:42.180Z,9.10
2019-04-01T21:32:08.239Z,9.33
2019-04-01T21:34:34.356Z,9.85
2019-04-01T21:37:03.171Z,10.95
2019-04-01T21:39:29.977Z,9.10
2019-04-01T21:41:56.332Z,8.30
2019-04-01T21:44:22.420Z,9.45
2019-04-01T21:46:48.595Z,9.08
2019-04-01T21:49:14.681Z,9.35
2019-04-01T21:51:40.743Z,8.35
2019-04-01T21:54:06.827Z,8.30
2019-04-01T21:56:32.921Z,9.00
2019-04-01T21:58:59.184Z,7.95
2019-04-01T22:01:25.364Z,8.53
2019-04-01T22:03:51.462Z,8.60
2019-04-01T22:06:17.551Z,7.85
2019-04-01T22:08:43.639Z,8.48
2019-04-01T22:11:09.703Z,8.70
2019-04-01T22:13:35.778Z,8.38
2019-04-01T22:16:01.847Z,8.00
2019-04-01T22:18:27.936Z,8.28
2019-04-01T22:20:54.014Z,8.75
2019-04-01T22:23:20.084Z,8.15
2019-04-01T22:25:46.264Z,8.23
2019-04-01T22:28:12.348Z,7.65
2019-04-01T22:30:38.433Z,7.53
2019-04-01T22:33:04.511Z,7.85
2019-04-01T22:35:38.686Z,8.18
2019-04-01T22:37:58.575Z,8.90
2019-04-01T22:40:24.710Z,8.85
2019-04-01T22:42:50.836Z,8.18
2019-04-01T22:45:16.902Z,8.15
2019-04-01T22:47:43.000Z,8.78
2019-04-01T22:50:10.264Z,7.40
2019-04-01T22:52:36.824Z,8.33
2019-04-01T22:55:04.209Z,8.13
2019-04-01T22:57:30.276Z,7.92
2019-04-01T22:59:56.381Z,8.00
2019-04-01T23:02:22.445Z,7.83
2019-04-01T23:04:48.531Z,6.85
2019-04-01T23:07:14.615Z,8.05
2019-04-01T23:09:40.784Z,8.30
2019-04-01T23:12:06.948Z,7.97
2019-04-01T23:14:33.028Z,7.70
2019-04-01T23:16:59.175Z,7.80
2019-04-01T23:19:25.336Z,7.85
2019-04-01T23:21:51.429Z,8.20
2019-04-01T23:24:17.516Z,7.97
2019-04-01T23:26:43.604Z,7.60
2019-04-01T23:29:09.662Z,8.18
2019-04-01T23:31:38.324Z,8.08
2019-04-01T23:34:03.732Z,7.80
2019-04-01T23:36:37.871Z,8.05
2019-04-01T23:39:05.760Z,8.83
2019-04-01T23:41:31.848Z,7.70
2019-04-01T23:43:57.943Z,7.62
2019-04-01T23:46:24.002Z,8.10
2019-04-01T23:48:50.085Z,8.63
2019-04-01T23:51:16.141Z,8.08
2019-04-01T23:53:42.200Z,8.00
2019-04-01T23:56:08.415Z,7.65
2019-04-01T23:58:34.582Z,7.78
